Time;durP1;ratioP1;P1;durP2;ratioP2;P2;SDS_P1;SDS_P2;PMS_P1;PMS_P2;Temp;Humidity;BMP_temperature;BMP_pressure;BME280_temperature;BME280_humidity;BME280_pressure;Samples;Min_cycle;Max_cycle;Signal;HPM_P1;HPM_P2
2023/07/15 00:00:55;;;;;;;4.80;4.30;;;;;;;21.38;66.01;156862.28;4875653;29;21140;-82
2023/07/15 00:03:40;;;;;;;4.23;3.90;;;;;;;21.33;66.64;156847.94;4859085;29;20474;-81
2023/07/15 00:06:25;;;;;;;4.17;3.80;;;;;;;21.26;66.14;156830.94;4879768;29;20541;-82
2023/07/15 00:09:15;;;;;;;3.73;3.33;;;;;;;21.23;66.88;156823.16;4898942;29;20521;-82
2023/07/15 00:12:00;;;;;;;4.53;4.13;;;;;;;21.19;66.48;156814.00;4895187;29;20489;-82
2023/07/15 00:14:46;;;;;;;5.40;4.23;;;;;;;21.16;66.67;156804.84;4906545;29;20425;-82
2023/07/15 00:17:31;;;;;;;4.33;3.93;;;;;;;21.16;66.21;156804.84;4897771;29;20570;-82
2023/07/15 00:20:19;;;;;;;4.80;4.40;;;;;;;21.16;66.66;156806.16;4899035;29;20458;-82
2023/07/15 00:23:10;;;;;;;4.57;4.17;;;;;;;21.20;66.46;156815.31;4917904;29;20460;-82
2023/07/15 00:25:56;;;;;;;4.10;3.80;;;;;;;21.21;66.30;156817.91;4897771;29;20464;-82
2023/07/15 00:28:42;;;;;;;4.03;3.70;;;;;;;21.21;66.52;156817.91;4898373;29;20540;-82
2023/07/15 00:31:28;;;;;;;4.20;3.80;;;;;;;21.21;66.18;156819.22;4896656;29;20464;-82
2023/07/15 00:34:14;;;;;;;3.90;3.60;;;;;;;21.21;66.39;156817.91;4900689;29;21003;-82
2023/07/15 00:37:00;;;;;;;4.63;3.97;;;;;;;21.19;66.87;156812.69;4905513;29;20449;-82
2023/07/15 00:39:45;;;;;;;4.50;4.13;;;;;;;21.19;66.29;156812.69;4898213;29;20452;-82
2023/07/15 00:42:58;;;;;;;4.27;3.90;;;;;;;21.19;66.84;156812.69;4900124;29;20448;-82
2023/07/15 00:45:43;;;;;;;3.80;3.50;;;;;;;21.18;66.77;156810.09;4874938;29;20461;-82
2023/07/15 00:48:31;;;;;;;4.00;3.60;;;;;;;21.16;66.80;156806.16;4905924;29;21023;-82
2023/07/15 00:51:18;;;;;;;4.00;3.70;;;;;;;21.13;66.90;156797.00;4908153;29;20461;-82
2023/07/15 00:54:04;;;;;;;5.73;4.40;;;;;;;21.14;66.94;156800.94;4914056;29;20441;-82
2023/07/15 00:56:49;;;;;;;7.20;4.73;;;;;;;21.12;67.02;156794.44;4904427;29;24649;-82
2023/07/15 00:59:35;;;;;;;4.37;3.97;;;;;;;21.12;68.04;156794.44;4897040;29;20499;-82
2023/07/15 01:02:20;;;;;;;4.17;3.60;;;;;;;21.09;67.91;156787.91;4900822;29;20484;-82
2023/07/15 01:05:11;;;;;;;4.33;3.93;;;;;;;21.06;67.78;156778.69;4898629;29;20753;-82
2023/07/15 01:07:56;;;;;;;4.63;4.13;;;;;;;21.04;67.93;156773.50;4904311;29;20445;-82
2023/07/15 01:10:42;;;;;;;4.70;4.30;;;;;;;21.02;68.21;156768.28;4911349;29;20460;-81
2023/07/15 01:13:27;;;;;;;4.73;4.33;;;;;;;21.01;68.93;156765.66;4883845;29;20509;-82
2023/07/15 01:16:13;;;;;;;4.40;4.00;;;;;;;20.98;68.93;156757.81;4898851;29;20558;-80
2023/07/15 01:18:58;;;;;;;5.00;4.50;;;;;;;20.98;68.66;156757.81;4888435;29;20490;-81
2023/07/15 01:21:47;;;;;;;3.90;3.60;;;;;;;20.98;68.98;156757.81;4902401;29;20513;-80
2023/07/15 01:24:35;;;;;;;4.37;3.97;;;;;;;20.98;68.95;156757.81;4909766;29;20469;-82
2023/07/15 01:27:21;;;;;;;5.20;4.70;;;;;;;20.95;69.20;156750.00;4897727;29;20695;-81
2023/07/15 01:30:07;;;;;;;4.33;3.93;;;;;;;20.94;69.38;156747.41;4910048;29;20488;-80
2023/07/15 01:32:52;;;;;;;4.00;3.70;;;;;;;20.92;69.59;156742.16;4905529;29;20800;-81
2023/07/15 01:35:40;;;;;;;4.80;4.30;;;;;;;20.87;69.64;156729.09;4911637;29;20461;-81
2023/07/15 01:38:25;;;;;;;4.40;4.00;;;;;;;20.85;69.66;156723.91;4907954;29;20452;-81
2023/07/15 01:41:12;;;;;;;4.17;3.63;;;;;;;20.83;69.75;156718.69;4897986;29;20449;-81
2023/07/15 01:43:57;;;;;;;4.70;4.30;;;;;;;20.81;70.02;156713.47;4911122;29;20597;-80
2023/07/15 01:46:43;;;;;;;4.60;4.20;;;;;;;20.81;70.31;156713.47;4904508;29;20465;-81
2023/07/15 01:49:28;;;;;;;5.90;4.50;;;;;;;20.83;70.53;156720.00;4910546;29;20472;-81
2023/07/15 01:52:13;;;;;;;4.93;4.53;;;;;;;20.83;70.73;156718.69;4911140;29;20453;-80
2023/07/15 01:55:03;;;;;;;4.57;3.93;;;;;;;20.82;70.57;156716.06;4910266;29;20518;-80
2023/07/15 01:57:50;;;;;;;5.17;4.67;;;;;;;20.82;70.84;156716.06;4900149;29;20452;-80
2023/07/15 02:00:35;;;;;;;4.77;3.80;;;;;;;20.81;71.18;156713.47;4899132;29;20461;-81
2023/07/15 02:03:20;;;;;;;4.23;3.80;;;;;;;20.77;70.89;156703.03;4896150;29;20489;-80
2023/07/15 02:06:06;;;;;;;6.47;4.50;;;;;;;20.75;70.83;156699.13;4883897;29;20898;-81
2023/07/15 02:08:52;;;;;;;4.17;3.80;;;;;;;20.75;70.81;156697.81;4907273;29;20473;-81
2023/07/15 02:11:37;;;;;;;4.80;4.40;;;;;;;20.75;71.53;156697.81;4903618;29;20591;-81
2023/07/15 02:14:23;;;;;;;4.63;4.23;;;;;;;20.73;71.34;156692.63;4897431;29;20437;-81
2023/07/15 02:17:10;;;;;;;4.73;4.33;;;;;;;20.75;71.33;156697.81;4897556;29;20497;-81
2023/07/15 02:19:57;;;;;;;3.90;3.60;;;;;;;20.77;71.22;156704.34;4905048;29;20543;-81
2023/07/15 02:22:43;;;;;;;4.80;4.40;;;;;;;20.77;71.13;156703.03;4895678;29;20476;-80
2023/07/15 02:25:29;;;;;;;4.47;4.07;;;;;;;20.73;70.93;156692.63;4899780;29;20543;-80
2023/07/15 02:28:14;;;;;;;5.10;4.60;;;;;;;20.70;71.10;156684.78;4905106;29;20465;-81
2023/07/15 02:31:00;;;;;;;5.87;4.37;;;;;;;20.67;71.17;156676.94;4912741;29;20743;-81
2023/07/15 02:33:46;;;;;;;4.70;4.30;;;;;;;20.69;71.12;156682.16;4905458;29;20477;-81
2023/07/15 02:36:31;;;;;;;5.17;4.77;;;;;;;20.65;71.29;156673.03;4886043;29;20995;-81
2023/07/15 02:39:17;;;;;;;4.27;3.77;;;;;;;20.62;71.03;156665.22;4895400;29;20584;-80
2023/07/15 02:42:02;;;;;;;4.70;4.30;;;;;;;20.62;71.76;156665.22;4906563;29;20445;-81
2023/07/15 02:44:47;;;;;;;4.80;4.40;;;;;;;20.60;71.71;156659.94;4896337;29;20484;-81
2023/07/15 02:47:35;;;;;;;4.73;4.33;;;;;;;20.57;71.83;156653.44;4887497;29;20564;-81
2023/07/15 02:50:20;;;;;;;6.90;4.60;;;;;;;20.54;71.71;156645.59;4893910;29;20731;-81
2023/07/15 02:53:05;;;;;;;4.40;4.00;;;;;;;20.53;72.35;156643.03;4895241;29;20465;-81
2023/07/15 02:55:51;;;;;;;4.10;3.77;;;;;;;20.53;72.25;156641.72;4904240;29;20540;-81
2023/07/15 02:58:37;;;;;;;4.50;4.10;;;;;;;20.53;72.72;156643.03;4901780;29;20460;-81
2023/07/15 03:01:22;;;;;;;5.00;4.47;;;;;;;20.49;72.37;156631.28;4898199;29;20496;-81
2023/07/15 03:04:09;;;;;;;5.60;4.50;;;;;;;20.45;72.83;156622.16;4911894;29;20425;-81
2023/07/15 03:06:55;;;;;;;4.23;3.93;;;;;;;20.42;72.88;156613.00;4893217;29;21071;-81
2023/07/15 03:09:40;;;;;;;5.00;4.50;;;;;;;20.36;73.07;156598.66;4893732;29;20472;-81
2023/07/15 03:12:26;;;;;;;5.03;4.63;;;;;;;20.35;73.34;156594.75;4885566;29;20985;-81
2023/07/15 03:15:11;;;;;;;4.97;4.57;;;;;;;20.31;73.86;156585.63;4900643;29;21081;-81
2023/07/15 03:17:56;;;;;;;4.33;3.93;;;;;;;20.27;74.05;156573.88;4910949;29;20453;-81
2023/07/15 03:20:43;;;;;;;4.67;4.27;;;;;;;20.26;73.84;156572.56;4905562;29;20864;-81
2023/07/15 03:23:28;;;;;;;5.60;5.07;;;;;;;20.23;74.23;156564.69;4912445;29;20462;-81
2023/07/15 03:26:13;;;;;;;4.93;4.43;;;;;;;20.19;74.08;156554.28;4895212;29;20604;-81
2023/07/15 03:28:59;;;;;;;5.03;4.60;;;;;;;20.18;74.35;156550.34;4908965;29;20452;-81
2023/07/15 03:31:44;;;;;;;5.60;5.10;;;;;;;20.16;74.24;156546.44;4905296;29;20456;-81
2023/07/15 03:34:30;;;;;;;5.10;4.57;;;;;;;20.14;74.48;156541.25;4908516;29;20488;-81
2023/07/15 03:37:16;;;;;;;4.83;4.43;;;;;;;20.11;74.38;156533.41;4897474;29;20456;-81
2023/07/15 03:40:04;;;;;;;5.30;4.87;;;;;;;20.10;74.96;156529.47;4914909;29;20443;-81
2023/07/15 03:42:50;;;;;;;4.73;4.33;;;;;;;20.06;74.76;156520.38;4913469;29;20456;-81
2023/07/15 03:45:36;;;;;;;6.43;4.60;;;;;;;20.03;75.20;156513.88;4908673;29;20492;-84
2023/07/15 03:48:21;;;;;;;5.13;4.63;;;;;;;20.05;75.28;156519.06;4908476;29;20503;-83
2023/07/15 03:51:07;;;;;;;6.00;5.43;;;;;;;20.05;75.08;156519.06;4913683;29;20496;-83
2023/07/15 03:53:54;;;;;;;4.53;4.20;;;;;;;20.06;75.08;156520.38;4905577;29;20818;-83
2023/07/15 03:56:40;;;;;;;6.63;5.10;;;;;;;20.05;75.14;156517.75;4909557;29;20491;-83
2023/07/15 03:59:25;;;;;;;5.30;4.80;;;;;;;20.03;75.57;156512.53;4902831;29;20536;-83
2023/07/15 04:02:10;;;;;;;4.90;4.50;;;;;;;20.02;75.20;156509.91;4902462;29;20457;-83
2023/07/15 04:04:56;;;;;;;5.07;4.67;;;;;;;20.00;75.35;156504.72;4896939;29;20891;-83
2023/07/15 04:07:42;;;;;;;6.00;4.53;;;;;;;20.00;75.68;156504.72;4901822;29;20505;-83
2023/07/15 04:10:28;;;;;;;5.03;4.60;;;;;;;20.02;75.10;156509.91;4908396;29;20673;-82
2023/07/15 04:13:14;;;;;;;5.77;4.50;;;;;;;20.06;74.93;156520.38;4907436;29;20802;-83
2023/07/15 04:15:59;;;;;;;4.93;4.53;;;;;;;20.12;75.03;156534.72;4891540;29;20535;-82
2023/07/15 04:18:45;;;;;;;5.07;4.63;;;;;;;20.16;75.04;156545.13;4903417;29;21012;-83
2023/07/15 04:21:30;;;;;;;5.10;4.60;;;;;;;20.20;74.80;156556.84;4892358;29;20464;-83
2023/07/15 04:24:15;;;;;;;5.27;4.77;;;;;;;20.27;74.23;156575.19;4907981;29;20449;-83
2023/07/15 04:27:04;;;;;;;5.43;4.30;;;;;;;20.43;74.34;156616.94;4911935;29;20967;-83
2023/07/15 04:29:49;;;;;;;5.47;4.57;;;;;;;20.52;73.96;156640.41;4906026;29;20481;-83
2023/07/15 04:32:34;;;;;;;5.23;4.67;;;;;;;20.63;73.59;156669.09;4895570;29;20616;-83
2023/07/15 04:35:22;;;;;;;4.80;3.97;;;;;;;20.81;72.98;156713.47;4907956;29;20508;-83
2023/07/15 04:38:09;;;;;;;4.80;4.40;;;;;;;21.00;72.15;156763.03;4904731;29;20511;-83
2023/07/15 04:40:54;;;;;;;5.03;4.17;;;;;;;21.26;70.84;156830.94;4911755;29;20449;-83
2023/07/15 04:43:41;;;;;;;4.30;3.90;;;;;;;21.59;69.78;156915.81;4912291;29;20433;-84
2023/07/15 04:46:26;;;;;;;5.60;4.07;;;;;;;21.91;68.08;156998.09;4890212;29;20475;-84
2023/07/15 04:49:18;;;;;;;4.63;4.23;;;;;;;22.19;67.08;157071.22;4908251;29;20948;-84
2023/07/15 04:52:05;;;;;;;4.00;3.70;;;;;;;22.40;66.83;157127.38;4896753;29;20448;-84
2023/07/15 04:54:50;;;;;;;4.53;4.13;;;;;;;22.58;65.73;157171.81;4887840;29;20468;-83
2023/07/15 04:57:35;;;;;;;4.23;3.83;;;;;;;22.76;64.18;157220.22;4902836;29;22092;-83
2023/07/15 05:00:22;;;;;;;4.63;4.23;;;;;;;22.97;63.51;157275.09;4905581;29;20617;-84
2023/07/15 05:03:07;;;;;;;3.70;3.40;;;;;;;23.14;62.29;157318.16;4910212;29;20599;-84
2023/07/15 05:05:52;;;;;;;4.30;3.80;;;;;;;23.34;61.95;157370.47;4903504;29;20492;-84
2023/07/15 05:08:38;;;;;;;3.90;3.60;;;;;;;23.50;61.74;157412.34;4914977;29;20472;-84
2023/07/15 05:11:25;;;;;;;3.83;3.53;;;;;;;23.75;60.79;157475.13;4910402;29;20849;-85
2023/07/15 05:14:11;;;;;;;5.13;4.30;;;;;;;23.95;60.45;157528.69;4890130;29;20453;-84
2023/07/15 05:16:58;;;;;;;4.97;4.47;;;;;;;24.08;60.03;157562.75;4893570;29;20456;-84
2023/07/15 05:19:43;;;;;;;4.27;3.97;;;;;;;24.21;59.75;157596.75;4902194;29;20821;-84
2023/07/15 05:22:31;;;;;;;4.03;3.50;;;;;;;24.38;59.17;157638.59;4922165;29;20451;-84
2023/07/15 05:25:16;;;;;;;3.97;3.63;;;;;;;24.51;59.31;157672.59;4911555;29;20459;-85
2023/07/15 05:28:02;;;;;;;4.10;3.70;;;;;;;24.60;58.81;157696.13;4909100;29;20971;-85
2023/07/15 05:30:47;;;;;;;5.30;4.07;;;;;;;24.81;57.67;157751.13;4917838;29;20568;-85
2023/07/15 05:33:34;;;;;;;4.60;4.00;;;;;;;25.02;57.00;157806.06;4917572;29;21229;-84
2023/07/15 05:36:20;;;;;;;4.30;3.90;;;;;;;25.08;56.51;157821.78;4919954;29;20527;-84
2023/07/15 05:39:05;;;;;;;3.80;3.50;;;;;;;25.16;56.88;157842.72;4917809;29;20448;-84
2023/07/15 05:41:51;;;;;;;5.20;4.00;;;;;;;25.23;56.69;157859.75;4901056;29;20885;-84
2023/07/15 05:44:36;;;;;;;4.60;4.23;;;;;;;25.47;56.22;157922.56;4901110;29;20821;-85
2023/07/15 05:47:21;;;;;;;3.90;3.60;;;;;;;25.62;55.08;157960.56;4915986;29;20449;-85
2023/07/15 05:50:09;;;;;;;4.40;3.70;;;;;;;25.73;55.20;157989.38;4913725;29;20472;-85
2023/07/15 05:52:55;;;;;;;4.03;3.67;;;;;;;25.97;54.56;158052.22;4915324;29;20452;-85
2023/07/15 05:55:40;;;;;;;4.03;3.73;;;;;;;26.19;54.30;158109.84;4890952;29;20515;-85
2023/07/15 05:58:26;;;;;;;4.27;3.87;;;;;;;26.40;53.64;158164.84;4907127;29;20531;-85
2023/07/15 06:01:12;;;;;;;5.50;4.10;;;;;;;26.52;53.24;158196.31;4906841;29;20458;-85
2023/07/15 06:03:58;;;;;;;3.97;3.67;;;;;;;26.60;52.87;158217.25;4886633;29;20457;-84
2023/07/15 06:06:45;;;;;;;4.33;3.77;;;;;;;26.94;52.07;158303.75;4893639;29;20523;-84
2023/07/15 06:09:31;;;;;;;4.30;3.90;;;;;;;27.11;50.40;158348.31;4900497;29;20452;-84
2023/07/15 06:12:16;;;;;;;4.30;3.80;;;;;;;27.27;51.57;158390.19;4899703;29;20444;-84
2023/07/15 06:15:04;;;;;;;4.27;3.87;;;;;;;27.53;48.49;158457.13;4915804;29;20499;-84
2023/07/15 06:17:50;;;;;;;3.87;3.40;;;;;;;27.67;49.85;158495.09;4912107;29;21097;-85
2023/07/15 06:20:40;;;;;;;5.33;4.27;;;;;;;27.82;49.09;158531.81;4900108;29;20907;-78
2023/07/15 06:23:27;;;;;;;3.57;3.27;;;;;;;27.91;48.91;158555.38;4918962;29;20539;-78
2023/07/15 06:26:12;;;;;;;4.30;3.90;;;;;;;28.12;47.81;158611.81;4917457;29;20448;-78
2023/07/15 06:28:57;;;;;;;3.80;3.40;;;;;;;28.36;47.35;158674.75;4914764;29;20582;-78
2023/07/15 06:31:43;;;;;;;5.53;3.90;;;;;;;28.54;46.81;158720.63;4917759;29;20492;-78
2023/07/15 06:34:28;;;;;;;4.60;3.63;;;;;;;28.72;46.37;158767.94;4917642;29;20528;-79
2023/07/15 06:37:14;;;;;;;6.97;3.80;;;;;;;28.89;47.37;158812.50;4905514;29;20464;-79
2023/07/15 06:40:00;;;;;;;3.93;3.60;;;;;;;29.06;45.41;158854.47;4908819;29;20448;-78
2023/07/15 06:42:46;;;;;;;4.20;3.80;;;;;;;29.09;44.97;158862.34;4918301;29;20802;-79
2023/07/15 06:45:35;;;;;;;5.20;4.70;;;;;;;29.21;44.52;158893.88;4912474;29;20954;-79
2023/07/15 06:48:20;;;;;;;4.97;3.90;;;;;;;29.34;45.02;158927.97;4915723;29;20453;-79
2023/07/15 06:51:05;;;;;;;4.70;4.33;;;;;;;29.35;46.39;158931.94;4918534;29;21004;-79
2023/07/15 06:53:50;;;;;;;3.80;3.50;;;;;;;29.45;45.48;158956.84;4914235;29;21179;-79
2023/07/15 06:56:37;;;;;;;4.00;3.70;;;;;;;29.59;44.29;158993.59;4916022;29;20460;-79
2023/07/15 06:59:22;;;;;;;5.03;4.53;;;;;;;29.75;45.44;159034.28;4920250;29;20448;-79
2023/07/15 07:02:07;;;;;;;4.07;3.77;;;;;;;29.86;44.26;159063.22;4925124;29;20562;-78
2023/07/15 07:04:52;;;;;;;4.33;3.40;;;;;;;30.13;44.48;159134.06;4917004;29;20463;-79
2023/07/15 07:07:38;;;;;;;4.50;3.50;;;;;;;30.25;45.12;159164.25;4919474;29;20470;-79
2023/07/15 07:10:23;;;;;;;4.70;3.80;;;;;;;30.40;43.97;159205.00;4917456;29;21099;-79
2023/07/15 07:13:09;;;;;;;3.63;3.43;;;;;;;30.60;42.84;159257.56;4917790;29;20441;-79
2023/07/15 07:15:57;;;;;;;4.13;3.70;;;;;;;30.77;42.75;159300.84;4910375;29;20512;-79
2023/07/15 07:18:42;;;;;;;4.80;3.83;;;;;;;30.92;41.96;159339.00;4908439;29;20683;-78
2023/07/15 07:21:27;;;;;;;4.63;4.20;;;;;;;31.20;41.53;159413.84;4912146;29;20955;-79
2023/07/15 07:24:13;;;;;;;3.80;3.50;;;;;;;31.49;40.25;159487.44;4906199;29;20580;-79
2023/07/15 07:26:58;;;;;;;4.30;4.00;;;;;;;31.62;40.28;159522.94;4911802;29;20459;-79
2023/07/15 07:29:45;;;;;;;4.83;3.50;;;;;;;31.73;40.19;159551.84;4921183;29;20604;-79
2023/07/15 07:32:30;;;;;;;6.50;3.93;;;;;;;31.87;40.20;159587.31;4907004;29;20496;-79
2023/07/15 07:35:17;;;;;;;4.43;4.00;;;;;;;32.01;40.13;159624.13;4920694;29;20923;-79
2023/07/15 07:38:02;;;;;;;3.97;3.67;;;;;;;32.10;40.49;159647.81;4907208;29;20452;-79
2023/07/15 07:40:47;;;;;;;7.43;3.80;;;;;;;32.13;38.70;159655.69;4918039;29;20452;-79
2023/07/15 07:43:32;;;;;;;4.17;3.87;;;;;;;32.27;39.44;159691.19;4920063;29;20451;-79
2023/07/15 07:46:19;;;;;;;3.80;3.50;;;;;;;32.43;39.39;159734.53;4917061;29;20967;-79
2023/07/15 07:49:04;;;;;;;4.77;4.37;;;;;;;32.63;38.38;159784.53;4920147;29;20519;-79
2023/07/15 07:51:50;;;;;;;4.30;3.90;;;;;;;32.89;37.83;159852.91;4905379;29;20483;-79
2023/07/15 07:54:35;;;;;;;4.47;4.03;;;;;;;33.02;36.99;159887.06;4918379;29;20524;-79
2023/07/15 07:57:20;;;;;;;4.17;3.77;;;;;;;33.13;36.23;159916.06;4918131;29;20592;-79
2023/07/15 08:00:07;;;;;;;4.57;4.17;;;;;;;33.18;37.91;159927.88;4920972;29;20519;-80
2023/07/15 08:02:54;;;;;;;7.33;3.77;;;;;;;33.20;36.46;159934.50;4919292;29;20424;-79
2023/07/15 08:05:42;;;;;;;5.47;3.90;;;;;;;33.36;36.71;159976.53;4908484;29;20463;-79
2023/07/15 08:08:27;;;;;;;3.47;3.17;;;;;;;33.57;36.83;160031.81;4887597;29;20535;-79
2023/07/15 08:11:13;;;;;;;9.87;3.80;;;;;;;33.83;35.54;160097.63;4906621;29;20476;-79
2023/07/15 08:13:58;;;;;;;4.70;3.63;;;;;;;33.89;34.95;160113.41;4912955;29;21139;-79
2023/07/15 08:16:44;;;;;;;4.27;3.87;;;;;;;33.95;35.09;160130.50;4912000;29;20468;-79
2023/07/15 08:19:30;;;;;;;4.23;3.63;;;;;;;34.21;35.22;160197.63;4910800;29;20805;-79
2023/07/15 08:22:15;;;;;;;3.70;3.40;;;;;;;34.44;35.86;160258.19;4916763;29;20782;-79
2023/07/15 08:25:01;;;;;;;4.00;3.67;;;;;;;34.67;34.21;160317.44;4918362;29;21053;-79
2023/07/15 08:27:46;;;;;;;4.00;3.63;;;;;;;34.54;33.82;160284.50;4915149;29;20799;-79
2023/07/15 08:30:35;;;;;;;5.20;3.47;;;;;;;34.36;34.20;160237.13;4907434;29;20926;-80
2023/07/15 08:33:21;;;;;;;5.10;3.27;;;;;;;34.01;34.34;160146.28;4896840;29;21039;-80
2023/07/15 08:36:07;;;;;;;4.20;3.80;;;;;;;33.59;34.22;160037.13;4907583;29;20523;-80
2023/07/15 08:38:54;;;;;;;3.70;3.40;;;;;;;33.44;36.00;159997.59;4918102;29;21239;-80
2023/07/15 08:41:40;;;;;;;3.77;3.47;;;;;;;33.38;36.51;159981.84;4918237;29;20650;-80
2023/07/15 08:44:25;;;;;;;4.10;3.43;;;;;;;33.40;36.03;159987.09;4918768;29;20882;-80
2023/07/15 08:47:11;;;;;;;4.43;4.03;;;;;;;33.46;36.90;160001.56;4921358;29;20453;-80
2023/07/15 08:49:58;;;;;;;5.60;3.93;;;;;;;33.60;34.67;160039.72;4894890;29;20491;-80
2023/07/15 08:52:45;;;;;;;3.23;2.90;;;;;;;33.82;35.68;160096.28;4912904;29;20868;-79
2023/07/15 08:55:31;;;;;;;3.57;3.27;;;;;;;34.14;34.08;160179.22;4918957;29;20479;-79
2023/07/15 08:58:16;;;;;;;4.70;3.33;;;;;;;34.40;33.09;160247.63;4919518;29;20462;-79
2023/07/15 09:01:01;;;;;;;4.03;2.93;;;;;;;34.77;33.14;160345.06;4911852;29;20458;-79
2023/07/15 09:03:49;;;;;;;3.63;3.20;;;;;;;34.94;31.16;160387.19;4920338;29;20902;-80
2023/07/15 09:06:34;;;;;;;4.70;2.93;;;;;;;35.11;31.60;160432.03;4910584;29;20598;-79
2023/07/15 09:09:31;;;;;;;4.07;3.77;;;;;;;35.03;32.76;160412.19;4911088;29;20448;-79
2023/07/15 09:12:16;;;;;;;3.27;2.90;;;;;;;35.02;32.20;160408.25;4915448;29;20467;-80
2023/07/15 09:15:01;;;;;;;3.70;3.40;;;;;;;35.11;32.29;160432.03;4916342;29;20519;-80
2023/07/15 09:17:52;;;;;;;3.57;3.37;;;;;;;35.19;33.12;160453.03;4912869;29;20495;-80
2023/07/15 09:20:37;;;;;;;3.50;3.20;;;;;;;35.30;32.17;160482.00;4914398;29;20455;-79
2023/07/15 09:23:22;;;;;;;3.37;3.17;;;;;;;35.45;30.69;160522.81;4915884;29;20444;-79
2023/07/15 09:26:10;;;;;;;3.60;3.30;;;;;;;35.46;30.56;160524.13;4915177;29;20808;-79
2023/07/15 09:28:55;;;;;;;3.90;3.60;;;;;;;35.67;30.30;160579.50;4915012;29;20955;-79
2023/07/15 09:31:40;;;;;;;5.87;3.53;;;;;;;35.82;30.01;160618.97;4909728;29;20479;-79
2023/07/15 09:34:27;;;;;;;4.70;3.90;;;;;;;36.01;29.88;160667.75;4911160;29;20456;-79
2023/07/15 09:37:27;;;;;;;3.40;3.10;;;;;;;35.87;29.54;160632.19;4916065;29;20943;-79
2023/07/15 09:40:13;;;;;;;5.03;3.00;;;;;;;35.99;30.08;160662.44;4916330;29;20460;-79
2023/07/15 09:42:59;;;;;;;3.13;2.93;;;;;;;36.07;28.54;160682.25;4912202;29;20448;-80
2023/07/15 09:45:45;;;;;;;3.57;3.10;;;;;;;36.11;28.74;160692.81;4912118;29;20463;-78
2023/07/15 09:48:31;;;;;;;3.37;3.17;;;;;;;36.20;30.00;160716.47;4914387;29;20479;-80
2023/07/15 09:51:18;;;;;;;3.60;3.30;;;;;;;36.18;29.80;160711.22;4916496;29;20991;-79
2023/07/15 09:54:03;;;;;;;3.10;2.90;;;;;;;36.28;31.03;160738.88;4916209;29;20511;-79
2023/07/15 09:56:51;;;;;;;3.73;3.43;;;;;;;36.30;30.29;160744.16;4914353;29;20462;-79
2023/07/15 09:59:43;;;;;;;3.80;3.50;;;;;;;36.37;30.31;160762.63;4912011;29;20464;-79
2023/07/15 10:02:34;;;;;;;3.50;3.20;;;;;;;36.31;29.22;160745.47;4915959;29;21086;-80
2023/07/15 10:05:20;;;;;;;4.07;3.70;;;;;;;36.34;30.43;160754.72;4914666;29;20818;-79
2023/07/15 10:08:05;;;;;;;3.40;3.10;;;;;;;36.28;30.04;160737.56;4894560;29;20779;-79
2023/07/15 10:10:51;;;;;;;3.50;3.20;;;;;;;36.32;31.96;160748.13;4907889;29;20559;-79
2023/07/15 10:13:36;;;;;;;3.40;3.10;;;;;;;36.31;30.25;160746.81;4907225;29;20489;-79
2023/07/15 10:16:25;;;;;;;3.60;3.30;;;;;;;36.37;30.03;160761.28;4899814;29;20455;-79
2023/07/15 10:19:41;;;;;;;3.33;3.03;;;;;;;36.44;29.17;160781.03;4906492;29;20582;-80
2023/07/15 10:22:34;;;;;;;5.63;3.27;;;;;;;36.51;29.76;160799.53;4905946;29;20439;-80
2023/07/15 10:25:19;;;;;;;3.50;3.20;;;;;;;36.56;29.11;160811.41;4916513;29;20470;-79
2023/07/15 10:28:13;;;;;;;3.30;3.00;;;;;;;36.44;27.60;160779.72;4907082;29;20459;-79
2023/07/15 10:31:12;;;;;;;3.07;2.70;;;;;;;36.38;28.13;160763.94;4914858;29;20460;-79
2023/07/15 10:34:04;;;;;;;4.17;3.00;;;;;;;36.29;30.01;160740.22;4906984;29;20502;-80
2023/07/15 10:36:50;;;;;;;3.83;3.53;;;;;;;36.21;30.40;160720.47;4903583;29;20491;-80
2023/07/15 10:39:36;;;;;;;3.67;3.37;;;;;;;36.11;29.96;160692.81;4909157;29;20531;-79
2023/07/15 10:42:21;;;;;;;3.80;3.50;;;;;;;36.00;28.54;160666.44;4915122;29;20516;-80
2023/07/15 10:45:06;;;;;;;3.50;3.30;;;;;;;35.98;29.31;160661.13;4914091;29;20639;-80
2023/07/15 10:47:52;;;;;;;3.50;3.20;;;;;;;36.09;29.80;160688.81;4918027;29;20595;-80
2023/07/15 10:50:39;;;;;;;4.00;3.60;;;;;;;36.20;28.91;160716.47;4918979;29;20455;-79
2023/07/15 10:53:26;;;;;;;3.80;3.50;;;;;;;35.88;29.14;160634.78;4916126;29;20471;-81
2023/07/15 10:56:12;;;;;;;3.93;3.53;;;;;;;35.80;29.32;160612.41;4910970;29;20790;-79
2023/07/15 10:58:58;;;;;;;5.03;3.53;;;;;;;35.81;29.95;160616.38;4911815;29;20492;-80
2023/07/15 11:01:43;;;;;;;3.80;3.50;;;;;;;35.75;29.13;160600.56;4914714;29;20968;-80
2023/07/15 11:04:29;;;;;;;3.50;3.30;;;;;;;35.74;28.78;160597.97;4913279;29;21052;-79
2023/07/15 11:07:15;;;;;;;4.40;3.20;;;;;;;35.78;28.95;160607.13;4903184;29;20491;-80
2023/07/15 11:10:01;;;;;;;3.67;3.10;;;;;;;35.73;30.73;160595.31;4913186;29;20871;-80
2023/07/15 11:12:46;;;;;;;3.90;3.53;;;;;;;35.94;29.40;160650.63;4904948;29;20471;-79
2023/07/15 11:15:32;;;;;;;3.50;3.20;;;;;;;36.09;28.52;160687.56;4912145;29;20636;-80
2023/07/15 11:18:17;;;;;;;3.80;3.50;;;;;;;36.21;29.62;160720.47;4909692;29;20454;-80
2023/07/15 11:21:03;;;;;;;4.40;3.23;;;;;;;36.15;29.05;160703.31;4909131;29;20970;-80
2023/07/15 11:23:49;;;;;;;3.90;3.60;;;;;;;35.90;28.62;160640.03;4909634;29;20444;-80
2023/07/15 11:26:36;;;;;;;3.80;3.50;;;;;;;35.24;29.28;160466.25;4910647;29;20962;-80
2023/07/15 11:29:24;;;;;;;3.50;3.20;;;;;;;35.03;29.17;160410.91;4899826;29;20865;-79
2023/07/15 11:32:09;;;;;;;3.90;3.60;;;;;;;35.05;29.25;160417.53;4914581;29;20827;-79
2023/07/15 11:34:54;;;;;;;3.40;3.10;;;;;;;35.09;29.39;160426.72;4918666;29;20577;-79
2023/07/15 11:37:43;;;;;;;3.57;3.27;;;;;;;35.24;29.88;160467.50;4917749;29;20448;-80
2023/07/15 11:40:29;;;;;;;3.93;3.20;;;;;;;35.34;28.84;160492.56;4917754;29;20489;-79
2023/07/15 11:43:16;;;;;;;3.70;3.40;;;;;;;35.35;28.82;160495.16;4912932;29;21319;-79
2023/07/15 11:46:02;;;;;;;3.57;3.27;;;;;;;35.25;28.81;160468.84;4918197;29;20447;-79
2023/07/15 11:48:47;;;;;;;3.60;3.30;;;;;;;35.27;28.72;160475.41;4921888;29;20447;-79
2023/07/15 11:51:33;;;;;;;3.83;3.53;;;;;;;35.22;29.14;160462.25;4916348;29;20614;-79
2023/07/15 11:54:18;;;;;;;2.80;2.60;;;;;;;35.24;28.66;160466.25;4906341;29;20446;-80
2023/07/15 11:57:06;;;;;;;3.23;3.03;;;;;;;35.19;28.77;160454.34;4918850;29;20458;-80
2023/07/15 11:59:51;;;;;;;3.93;3.53;;;;;;;35.13;28.89;160437.28;4918923;29;20599;-79
2023/07/15 12:02:36;;;;;;;3.53;3.30;;;;;;;35.04;30.70;160414.84;4904046;29;20455;-80
2023/07/15 12:05:22;;;;;;;3.60;3.30;;;;;;;34.97;29.07;160396.41;4912499;29;20558;-81
2023/07/15 12:08:12;;;;;;;3.77;3.47;;;;;;;35.07;28.43;160422.78;4910105;29;20447;-80
2023/07/15 12:10:58;;;;;;;3.90;3.53;;;;;;;34.98;31.74;160397.69;4910891;29;20518;-80
2023/07/15 12:13:45;;;;;;;4.50;4.20;;;;;;;35.01;31.20;160405.59;4905819;29;20503;-80
2023/07/15 12:16:31;;;;;;;3.90;3.60;;;;;;;34.80;33.20;160352.97;4913253;29;20836;-81
2023/07/15 12:19:17;;;;;;;3.90;3.60;;;;;;;34.72;32.11;160331.91;4905889;29;20581;-80
2023/07/15 12:22:03;;;;;;;4.30;3.90;;;;;;;34.48;32.01;160268.69;4910316;29;20515;-80
2023/07/15 12:24:48;;;;;;;3.70;3.40;;;;;;;34.42;31.28;160251.59;4919505;29;20466;-80
2023/07/15 12:27:34;;;;;;;3.20;3.00;;;;;;;34.18;31.84;160191.03;4918134;29;20455;-80
2023/07/15 12:30:20;;;;;;;3.93;3.53;;;;;;;34.16;32.05;160184.47;4917934;29;21278;-80
2023/07/15 12:33:06;;;;;;;4.00;3.70;;;;;;;34.19;32.39;160192.38;4919822;29;20510;-80
2023/07/15 12:35:51;;;;;;;3.70;3.40;;;;;;;34.40;30.95;160247.63;4913400;29;20473;-80
2023/07/15 12:38:36;;;;;;;4.83;3.30;;;;;;;34.22;31.19;160200.28;4908296;29;20968;-79
2023/07/15 12:41:23;;;;;;;3.47;3.27;;;;;;;34.29;31.05;160220.00;4916029;29;20486;-80
2023/07/15 12:44:12;;;;;;;4.20;3.90;;;;;;;34.27;31.46;160214.75;4909685;29;20449;-80
2023/07/15 12:46:58;;;;;;;4.30;3.90;;;;;;;34.37;33.39;160239.72;4904919;29;20455;-80
2023/07/15 12:49:44;;;;;;;4.43;4.13;;;;;;;34.31;34.03;160222.66;4914896;29;20459;-80
2023/07/15 12:52:29;;;;;;;5.20;4.17;;;;;;;34.14;34.19;160180.53;4915019;29;20950;-79